Sattler, Texas
Current Conditions -  °F | °C
As of 11:51 AM on Saturday 25 Oct 2014 (Local Time) from KBAZ Reporting Station
Clear Clear  
Wind Chill: 28°   Ceiling: Unl
Heat Index: 28°   Visibility: 10mi
Dew Point: 13°   Wind: 9mph
Humidity: 39%   Direction: 230°SW
Pressure: 30.17"   Gusts: NA
Location:  29.8812°N, 98.2387°W
Report Text: KBAZ 251651Z 23008KT 10SM CLR 28/13 A3017 RMK AO2 SLP210 T02830133
Loading
Personal Weather Stations






























Interactive Weather Map
Tropical Storm Tracking
New forecast layout! Learn more

10-Day Weather Forecast

Advertisements
Track Severe Weather on mobile